sensor_id;sensor_type;location;lat;lon;timestamp;temperature;humidity
39909;DHT22;25576;48.328;15.694;2022-07-23T00:00:53;23.10;1.00
39909;DHT22;25576;48.328;15.694;2022-07-23T00:06:25;22.80;19.60
39909;DHT22;25576;48.328;15.694;2022-07-23T00:11:57;22.70;1.00
39909;DHT22;25576;48.328;15.694;2022-07-23T00:17:30;22.80;1.00
39909;DHT22;25576;48.328;15.694;2022-07-23T00:23:02;22.60;1.00
39909;DHT22;25576;48.328;15.694;2022-07-23T00:28:35;22.60;1.00
39909;DHT22;25576;48.328;15.694;2022-07-23T00:34:07;22.70;1.00
39909;DHT22;25576;48.328;15.694;2022-07-23T00:39:38;22.50;1.00
39909;DHT22;25576;48.328;15.694;2022-07-23T00:45:10;22.40;4.80
39909;DHT22;25576;48.328;15.694;2022-07-23T00:50:43;22.40;10.70
39909;DHT22;25576;48.328;15.694;2022-07-23T00:56:16;22.50;1.00
39909;DHT22;25576;48.328;15.694;2022-07-23T01:01:53;22.90;99.90
39909;DHT22;25576;48.328;15.694;2022-07-23T01:07:29;23.20;99.90
39909;DHT22;25576;48.328;15.694;2022-07-23T01:13:03;23.50;99.90
39909;DHT22;25576;48.328;15.694;2022-07-23T01:18:36;23.70;99.90
39909;DHT22;25576;48.328;15.694;2022-07-23T01:24:11;23.50;99.90
39909;DHT22;25576;48.328;15.694;2022-07-23T01:29:44;23.50;99.90
39909;DHT22;25576;48.328;15.694;2022-07-23T01:35:16;23.40;99.90
39909;DHT22;25576;48.328;15.694;2022-07-23T01:40:49;23.20;1.00
39909;DHT22;25576;48.328;15.694;2022-07-23T01:46:23;23.20;1.00
39909;DHT22;25576;48.328;15.694;2022-07-23T01:51:55;23.20;1.00
39909;DHT22;25576;48.328;15.694;2022-07-23T01:57:38;23.20;1.00
39909;DHT22;25576;48.328;15.694;2022-07-23T02:03:10;23.20;1.00
39909;DHT22;25576;48.328;15.694;2022-07-23T02:08:42;23.10;1.00
39909;DHT22;25576;48.328;15.694;2022-07-23T02:14:16;23.00;1.00
39909;DHT22;25576;48.328;15.694;2022-07-23T02:19:49;23.10;1.00
39909;DHT22;25576;48.328;15.694;2022-07-23T02:25:20;23.00;1.00
39909;DHT22;25576;48.328;15.694;2022-07-23T02:30:56;22.80;1.00
39909;DHT22;25576;48.328;15.694;2022-07-23T02:36:29;22.90;1.00
39909;DHT22;25576;48.328;15.694;2022-07-23T02:42:01;23.80;99.90
39909;DHT22;25576;48.328;15.694;2022-07-23T02:47:46;24.00;99.90
39909;DHT22;25576;48.328;15.694;2022-07-23T02:53:20;24.10;99.90
39909;DHT22;25576;48.328;15.694;2022-07-23T02:58:57;24.20;99.90
39909;DHT22;25576;48.328;15.694;2022-07-23T03:04:39;24.20;99.90
39909;DHT22;25576;48.328;15.694;2022-07-23T03:10:23;24.10;99.90
39909;DHT22;25576;48.328;15.694;2022-07-23T03:15:58;24.00;99.90
39909;DHT22;25576;48.328;15.694;2022-07-23T03:21:33;23.90;99.90
39909;DHT22;25576;48.328;15.694;2022-07-23T03:27:09;23.90;99.90
39909;DHT22;25576;48.328;15.694;2022-07-23T03:32:42;23.80;99.90
39909;DHT22;25576;48.328;15.694;2022-07-23T03:35:18;23.80;99.90
39909;DHT22;25576;48.328;15.694;2022-07-23T03:41:20;23.60;99.90
39909;DHT22;25576;48.328;15.694;2022-07-23T03:47:23;23.50;1.00
39909;DHT22;25576;48.328;15.694;2022-07-23T03:52:57;23.50;1.00
39909;DHT22;25576;48.328;15.694;2022-07-23T03:58:56;23.40;1.00
39909;DHT22;25576;48.328;15.694;2022-07-23T04:04:44;23.40;1.00
39909;DHT22;25576;48.328;15.694;2022-07-23T04:10:34;23.20;1.00
39909;DHT22;25576;48.328;15.694;2022-07-23T04:22:05;23.10;1.00
39909;DHT22;25576;48.328;15.694;2022-07-23T04:27:37;23.00;1.00
39909;DHT22;25576;48.328;15.694;2022-07-23T04:33:14;23.10;1.00
39909;DHT22;25576;48.328;15.694;2022-07-23T04:51:12;23.20;1.00
39909;DHT22;25576;48.328;15.694;2022-07-23T04:56:51;23.30;1.00
39909;DHT22;25576;48.328;15.694;2022-07-23T05:02:28;23.40;1.00
39909;DHT22;25576;48.328;15.694;2022-07-23T05:32:15;23.60;1.00
39909;DHT22;25576;48.328;15.694;2022-07-23T05:37:50;23.60;1.00
39909;DHT22;25576;48.328;15.694;2022-07-23T05:43:23;23.70;1.00
39909;DHT22;25576;48.328;15.694;2022-07-23T05:49:07;24.00;1.00
39909;DHT22;25576;48.328;15.694;2022-07-23T05:54:42;24.20;1.00
39909;DHT22;25576;48.328;15.694;2022-07-23T06:00:18;24.40;1.00
39909;DHT22;25576;48.328;15.694;2022-07-23T06:06:03;24.80;1.00
39909;DHT22;25576;48.328;15.694;2022-07-23T06:11:50;25.00;1.00
39909;DHT22;25576;48.328;15.694;2022-07-23T06:17:24;25.10;1.00
39909;DHT22;25576;48.328;15.694;2022-07-23T06:40:48;25.60;99.90
39909;DHT22;25576;48.328;15.694;2022-07-23T06:46:31;25.90;99.90
39909;DHT22;25576;48.328;15.694;2022-07-23T06:52:16;26.00;99.90
39909;DHT22;25576;48.328;15.694;2022-07-23T06:58:11;26.00;99.90
39909;DHT22;25576;48.328;15.694;2022-07-23T07:03:57;25.80;99.90
39909;DHT22;25576;48.328;15.694;2022-07-23T08:13:23;27.60;99.90
39909;DHT22;25576;48.328;15.694;2022-07-23T08:18:54;27.90;99.90
39909;DHT22;25576;48.328;15.694;2022-07-23T08:24:24;28.10;99.90
39909;DHT22;25576;48.328;15.694;2022-07-23T08:29:56;28.30;99.90
39909;DHT22;25576;48.328;15.694;2022-07-23T08:35:26;28.40;99.90
39909;DHT22;25576;48.328;15.694;2022-07-23T08:40:57;28.60;99.90
39909;DHT22;25576;48.328;15.694;2022-07-23T08:46:29;28.70;99.90
39909;DHT22;25576;48.328;15.694;2022-07-23T08:51:59;28.80;99.90
39909;DHT22;25576;48.328;15.694;2022-07-23T08:57:29;28.70;99.90
39909;DHT22;25576;48.328;15.694;2022-07-23T09:03:01;28.60;99.90
39909;DHT22;25576;48.328;15.694;2022-07-23T09:08:34;29.00;99.90
39909;DHT22;25576;48.328;15.694;2022-07-23T09:14:05;29.10;99.90
39909;DHT22;25576;48.328;15.694;2022-07-23T09:19:36;29.50;99.90
39909;DHT22;25576;48.328;15.694;2022-07-23T09:25:08;29.40;99.90
39909;DHT22;25576;48.328;15.694;2022-07-23T09:30:39;29.60;99.90
39909;DHT22;25576;48.328;15.694;2022-07-23T09:36:28;29.50;99.90
39909;DHT22;25576;48.328;15.694;2022-07-23T09:42:12;29.60;99.90
39909;DHT22;25576;48.328;15.694;2022-07-23T09:47:42;29.90;99.90
39909;DHT22;25576;48.328;15.694;2022-07-23T09:53:26;30.10;99.90
39909;DHT22;25576;48.328;15.694;2022-07-23T09:58:56;30.10;99.90
39909;DHT22;25576;48.328;15.694;2022-07-23T10:04:33;30.20;99.90
39909;DHT22;25576;48.328;15.694;2022-07-23T10:10:05;30.20;99.90
39909;DHT22;25576;48.328;15.694;2022-07-23T10:15:36;30.40;99.90
39909;DHT22;25576;48.328;15.694;2022-07-23T10:21:07;30.60;99.90
39909;DHT22;25576;48.328;15.694;2022-07-23T10:26:41;30.80;99.90
39909;DHT22;25576;48.328;15.694;2022-07-23T10:32:15;31.00;99.90
39909;DHT22;25576;48.328;15.694;2022-07-23T10:37:47;31.10;99.90
39909;DHT22;25576;48.328;15.694;2022-07-23T10:43:20;30.90;99.90
39909;DHT22;25576;48.328;15.694;2022-07-23T10:54:35;31.20;99.90
39909;DHT22;25576;48.328;15.694;2022-07-23T11:05:55;31.40;99.90
39909;DHT22;25576;48.328;15.694;2022-07-23T11:11:25;31.40;99.90
39909;DHT22;25576;48.328;15.694;2022-07-23T11:16:56;31.40;99.90
39909;DHT22;25576;48.328;15.694;2022-07-23T11:22:35;31.50;99.90
39909;DHT22;25576;48.328;15.694;2022-07-23T11:28:09;31.60;99.90
39909;DHT22;25576;48.328;15.694;2022-07-23T11:33:40;31.70;99.90
39909;DHT22;25576;48.328;15.694;2022-07-23T11:39:12;31.80;99.90
39909;DHT22;25576;48.328;15.694;2022-07-23T11:44:42;31.60;99.90
39909;DHT22;25576;48.328;15.694;2022-07-23T11:50:16;31.40;99.90
39909;DHT22;25576;48.328;15.694;2022-07-23T11:55:48;31.10;99.90
39909;DHT22;25576;48.328;15.694;2022-07-23T12:01:18;31.00;99.90
39909;DHT22;25576;48.328;15.694;2022-07-23T12:06:48;30.80;99.90
39909;DHT22;25576;48.328;15.694;2022-07-23T12:12:19;30.30;99.90
39909;DHT22;25576;48.328;15.694;2022-07-23T12:17:50;30.10;99.90
39909;DHT22;25576;48.328;15.694;2022-07-23T12:23:22;29.90;99.90
39909;DHT22;25576;48.328;15.694;2022-07-23T12:28:54;29.80;99.90
39909;DHT22;25576;48.328;15.694;2022-07-23T12:34:24;30.00;99.90
39909;DHT22;25576;48.328;15.694;2022-07-23T12:39:54;30.70;99.90
39909;DHT22;25576;48.328;15.694;2022-07-23T12:45:26;31.40;99.90
39909;DHT22;25576;48.328;15.694;2022-07-23T12:50:57;31.80;99.90
39909;DHT22;25576;48.328;15.694;2022-07-23T12:56:29;31.70;99.90
39909;DHT22;25576;48.328;15.694;2022-07-23T13:02:01;31.30;99.90
39909;DHT22;25576;48.328;15.694;2022-07-23T13:07:31;30.90;99.90
39909;DHT22;25576;48.328;15.694;2022-07-23T13:13:01;31.40;99.90
39909;DHT22;25576;48.328;15.694;2022-07-23T13:18:35;31.80;99.90
39909;DHT22;25576;48.328;15.694;2022-07-23T13:24:05;32.10;99.90
39909;DHT22;25576;48.328;15.694;2022-07-23T13:29:36;32.00;99.90
39909;DHT22;25576;48.328;15.694;2022-07-23T13:35:08;32.30;99.90
39909;DHT22;25576;48.328;15.694;2022-07-23T13:40:39;32.30;99.90
39909;DHT22;25576;48.328;15.694;2022-07-23T13:46:11;32.70;99.90
39909;DHT22;25576;48.328;15.694;2022-07-23T13:51:42;32.90;99.90
39909;DHT22;25576;48.328;15.694;2022-07-23T13:57:13;32.50;99.90
39909;DHT22;25576;48.328;15.694;2022-07-23T14:02:43;32.80;99.90
39909;DHT22;25576;48.328;15.694;2022-07-23T14:08:14;32.60;99.90
39909;DHT22;25576;48.328;15.694;2022-07-23T14:13:44;32.50;99.90
39909;DHT22;25576;48.328;15.694;2022-07-23T14:19:15;32.50;99.90
39909;DHT22;25576;48.328;15.694;2022-07-23T14:24:46;32.50;99.90
39909;DHT22;25576;48.328;15.694;2022-07-23T14:30:17;32.40;99.90
39909;DHT22;25576;48.328;15.694;2022-07-23T14:35:47;32.50;99.90
39909;DHT22;25576;48.328;15.694;2022-07-23T14:41:18;32.20;99.90
39909;DHT22;25576;48.328;15.694;2022-07-23T14:46:48;32.30;99.90
39909;DHT22;25576;48.328;15.694;2022-07-23T14:52:19;32.20;99.90
39909;DHT22;25576;48.328;15.694;2022-07-23T14:57:50;32.40;99.90
39909;DHT22;25576;48.328;15.694;2022-07-23T15:03:21;32.10;99.90
39909;DHT22;25576;48.328;15.694;2022-07-23T15:08:52;32.10;99.90
39909;DHT22;25576;48.328;15.694;2022-07-23T15:14:24;32.20;99.90
39909;DHT22;25576;48.328;15.694;2022-07-23T15:19:54;32.30;99.90
39909;DHT22;25576;48.328;15.694;2022-07-23T15:25:24;32.00;99.90
39909;DHT22;25576;48.328;15.694;2022-07-23T15:30:56;32.10;99.90
39909;DHT22;25576;48.328;15.694;2022-07-23T15:36:26;32.10;99.90
39909;DHT22;25576;48.328;15.694;2022-07-23T15:41:56;31.90;99.90
39909;DHT22;25576;48.328;15.694;2022-07-23T15:47:28;31.70;99.90
39909;DHT22;25576;48.328;15.694;2022-07-23T15:52:58;31.50;99.90
39909;DHT22;25576;48.328;15.694;2022-07-23T15:58:29;31.20;99.90
39909;DHT22;25576;48.328;15.694;2022-07-23T16:04:00;30.90;99.90
39909;DHT22;25576;48.328;15.694;2022-07-23T16:09:31;30.80;99.90
39909;DHT22;25576;48.328;15.694;2022-07-23T16:15:01;30.80;99.90
39909;DHT22;25576;48.328;15.694;2022-07-23T16:20:33;30.80;99.90
39909;DHT22;25576;48.328;15.694;2022-07-23T16:26:04;30.60;99.90
39909;DHT22;25576;48.328;15.694;2022-07-23T16:31:34;30.60;99.90
39909;DHT22;25576;48.328;15.694;2022-07-23T16:37:06;30.60;99.90
39909;DHT22;25576;48.328;15.694;2022-07-23T16:42:37;30.50;99.90
39909;DHT22;25576;48.328;15.694;2022-07-23T16:48:07;30.40;99.90
39909;DHT22;25576;48.328;15.694;2022-07-23T16:53:39;30.20;99.90
39909;DHT22;25576;48.328;15.694;2022-07-23T16:59:10;30.20;99.90
39909;DHT22;25576;48.328;15.694;2022-07-23T17:04:40;30.10;99.90
39909;DHT22;25576;48.328;15.694;2022-07-23T17:10:12;29.90;99.90
39909;DHT22;25576;48.328;15.694;2022-07-23T17:15:42;29.80;99.90
39909;DHT22;25576;48.328;15.694;2022-07-23T17:21:12;29.80;99.90
39909;DHT22;25576;48.328;15.694;2022-07-23T17:26:44;29.70;99.90
39909;DHT22;25576;48.328;15.694;2022-07-23T17:32:14;29.50;99.90
39909;DHT22;25576;48.328;15.694;2022-07-23T17:37:45;29.40;99.90
39909;DHT22;25576;48.328;15.694;2022-07-23T17:43:16;29.40;99.90
39909;DHT22;25576;48.328;15.694;2022-07-23T17:48:47;29.20;99.90
39909;DHT22;25576;48.328;15.694;2022-07-23T17:54:17;29.10;99.90
39909;DHT22;25576;48.328;15.694;2022-07-23T17:59:49;29.00;99.90
39909;DHT22;25576;48.328;15.694;2022-07-23T18:05:19;28.80;99.90
39909;DHT22;25576;48.328;15.694;2022-07-23T18:10:49;28.60;99.90
39909;DHT22;25576;48.328;15.694;2022-07-23T18:16:21;28.50;99.90
39909;DHT22;25576;48.328;15.694;2022-07-23T18:21:51;28.30;99.90
39909;DHT22;25576;48.328;15.694;2022-07-23T18:27:21;28.20;99.90
39909;DHT22;25576;48.328;15.694;2022-07-23T18:32:52;28.10;99.90
39909;DHT22;25576;48.328;15.694;2022-07-23T18:38:23;28.10;99.90
39909;DHT22;25576;48.328;15.694;2022-07-23T18:43:54;27.90;99.90
39909;DHT22;25576;48.328;15.694;2022-07-23T18:49:25;27.80;99.90
39909;DHT22;25576;48.328;15.694;2022-07-23T18:54:55;27.70;99.90
39909;DHT22;25576;48.328;15.694;2022-07-23T19:00:25;27.70;99.90
39909;DHT22;25576;48.328;15.694;2022-07-23T19:06:07;27.50;99.90
39909;DHT22;25576;48.328;15.694;2022-07-23T19:11:38;27.40;99.90
39909;DHT22;25576;48.328;15.694;2022-07-23T19:17:08;27.30;99.90
39909;DHT22;25576;48.328;15.694;2022-07-23T19:22:40;27.00;99.90
39909;DHT22;25576;48.328;15.694;2022-07-23T19:28:11;26.80;99.90
39909;DHT22;25576;48.328;15.694;2022-07-23T19:33:42;26.50;99.90
39909;DHT22;25576;48.328;15.694;2022-07-23T19:39:15;26.30;99.90
39909;DHT22;25576;48.328;15.694;2022-07-23T20:33:22;25.40;99.90
39909;DHT22;25576;48.328;15.694;2022-07-23T20:39:20;25.40;99.90
39909;DHT22;25576;48.328;15.694;2022-07-23T20:45:07;25.20;99.90
39909;DHT22;25576;48.328;15.694;2022-07-23T20:51:03;25.20;99.90
39909;DHT22;25576;48.328;15.694;2022-07-23T20:56:39;25.20;99.90
39909;DHT22;25576;48.328;15.694;2022-07-23T21:02:48;25.00;99.90
39909;DHT22;25576;48.328;15.694;2022-07-23T21:08:22;25.00;99.90
39909;DHT22;25576;48.328;15.694;2022-07-23T21:14:01;24.90;99.90
39909;DHT22;25576;48.328;15.694;2022-07-23T21:19:45;24.90;99.90
39909;DHT22;25576;48.328;15.694;2022-07-23T21:25:21;25.00;99.90
39909;DHT22;25576;48.328;15.694;2022-07-23T21:31:01;25.00;99.90
39909;DHT22;25576;48.328;15.694;2022-07-23T21:36:44;25.00;99.90
39909;DHT22;25576;48.328;15.694;2022-07-23T21:42:32;25.00;99.90
39909;DHT22;25576;48.328;15.694;2022-07-23T21:48:25;25.00;99.90
39909;DHT22;25576;48.328;15.694;2022-07-23T21:53:57;24.90;99.90
39909;DHT22;25576;48.328;15.694;2022-07-23T21:59:41;24.70;99.90
39909;DHT22;25576;48.328;15.694;2022-07-23T22:05:27;24.50;99.90
39909;DHT22;25576;48.328;15.694;2022-07-23T22:11:06;24.50;99.90
39909;DHT22;25576;48.328;15.694;2022-07-23T22:22:48;24.40;99.90
39909;DHT22;25576;48.328;15.694;2022-07-23T22:28:30;24.40;99.90
39909;DHT22;25576;48.328;15.694;2022-07-23T22:37:39;24.30;99.90
39909;DHT22;25576;48.328;15.694;2022-07-23T23:44:37;23.30;99.90
39909;DHT22;25576;48.328;15.694;2022-07-23T23:50:20;23.10;99.90
39909;DHT22;25576;48.328;15.694;2022-07-23T23:55:56;23.10;99.90
